Time;durP1;ratioP1;P1;durP2;ratioP2;P2;SDS_P1;SDS_P2;PMS_P1;PMS_P2;Temp;Humidity;BMP_temperature;BMP_pressure;BME280_temperature;BME280_humidity;BME280_pressure;Samples;Min_cycle;Max_cycle;Signal;HPM_P1;HPM_P2
2023/09/21 00:00:34;;;;;;;3.00;2.53;;;;;;;;;;6185390;23;20035;-90
2023/09/21 00:03:06;;;;;;;4.05;2.92;;;;;;;;;;6186657;23;20016;-90
2023/09/21 00:05:39;;;;;;;2.88;2.55;;;;;;;;;;6186390;23;20471;-90
2023/09/21 00:08:09;;;;;;;5.60;3.22;;;;;;;;;;6162126;23;20023;-90
2023/09/21 00:10:41;;;;;;;4.40;3.30;;;;;;;;;;6161624;23;20031;-90
2023/09/21 00:13:09;;;;;;;2.50;2.30;;;;;;;;;;6186439;23;20020;-90
2023/09/21 00:15:36;;;;;;;4.10;2.72;;;;;;;;;;6198353;23;20020;-90
2023/09/21 00:18:05;;;;;;;6.05;2.67;;;;;;;;;;6163482;23;20040;-90
2023/09/21 00:20:42;;;;;;;4.88;2.67;;;;;;;;;;6187918;23;20475;-90
2023/09/21 00:23:11;;;;;;;4.05;3.08;;;;;;;;;;6163750;23;20040;-91
2023/09/21 00:25:40;;;;;;;5.88;3.30;;;;;;;;;;6187920;23;20020;-90
2023/09/21 00:28:08;;;;;;;4.60;2.90;;;;;;;;;;6188041;23;20364;-90
2023/09/21 00:30:35;;;;;;;4.85;3.05;;;;;;;;;;6195986;23;20012;-90
2023/09/21 00:33:07;;;;;;;3.58;3.00;;;;;;;;;;6213633;23;20019;-91
2023/09/21 00:35:35;;;;;;;3.45;3.00;;;;;;;;;;6198333;23;20016;-92
2023/09/21 00:38:07;;;;;;;3.65;3.22;;;;;;;;;;6215001;23;20020;-90
2023/09/21 00:40:39;;;;;;;3.72;2.67;;;;;;;;;;6163686;23;20019;-90
2023/09/21 00:43:09;;;;;;;6.55;3.38;;;;;;;;;;6187194;23;20036;-91
2023/09/21 00:45:37;;;;;;;4.15;3.13;;;;;;;;;;6163526;23;20463;-90
2023/09/21 00:48:09;;;;;;;4.32;3.25;;;;;;;;;;6163086;23;20024;-89
2023/09/21 00:50:36;;;;;;;3.05;2.72;;;;;;;;;;6222469;23;20431;-91
2023/09/21 00:53:07;;;;;;;4.50;2.83;;;;;;;;;;6187547;23;20024;-90
2023/09/21 00:55:39;;;;;;;3.67;2.17;;;;;;;;;;6163048;23;20020;-90
2023/09/21 00:58:09;;;;;;;3.58;2.20;;;;;;;;;;6224660;23;20016;-90
2023/09/21 01:00:39;;;;;;;2.60;2.40;;;;;;;;;;6187553;23;20017;-90
2023/09/21 01:03:11;;;;;;;2.90;2.53;;;;;;;;;;6224092;23;20012;-90
2023/09/21 01:05:45;;;;;;;4.20;3.05;;;;;;;;;;6161677;23;20514;-90
2023/09/21 01:08:17;;;;;;;3.75;3.08;;;;;;;;;;6197691;23;20016;-90
2023/09/21 01:10:49;;;;;;;5.10;3.35;;;;;;;;;;6187730;23;20027;-90
2023/09/21 01:13:21;;;;;;;4.70;3.30;;;;;;;;;;6164645;23;20431;-89
2023/09/21 01:15:59;;;;;;;4.07;2.75;;;;;;;;;;6228807;23;20023;-92
2023/09/21 01:18:27;;;;;;;3.95;2.63;;;;;;;;;;6169668;23;20025;-90
2023/09/21 01:21:04;;;;;;;3.58;2.80;;;;;;;;;;6166016;23;20016;-89
2023/09/21 01:23:39;;;;;;;3.03;2.72;;;;;;;;;;6163061;23;20031;-90
2023/09/21 01:26:06;;;;;;;5.47;3.28;;;;;;;;;;6197025;23;20013;-90
2023/09/21 01:28:37;;;;;;;8.80;2.92;;;;;;;;;;6187363;23;20019;-91
2023/09/21 01:31:05;;;;;;;3.70;2.78;;;;;;;;;;6162621;23;20020;-90
2023/09/21 01:33:34;;;;;;;4.13;3.15;;;;;;;;;;6187993;23;20468;-91
2023/09/21 01:36:03;;;;;;;3.75;2.97;;;;;;;;;;6187408;23;20030;-92
2023/09/21 01:38:34;;;;;;;4.75;3.13;;;;;;;;;;6197706;23;20020;-90
2023/09/21 01:41:03;;;;;;;4.35;2.58;;;;;;;;;;6163676;23;20017;-90
2023/09/21 01:43:30;;;;;;;4.80;3.67;;;;;;;;;;6215005;23;20012;-90
2023/09/21 01:45:58;;;;;;;6.50;2.80;;;;;;;;;;6161689;23;20224;-90
2023/09/21 01:48:28;;;;;;;6.15;2.70;;;;;;;;;;6162368;23;20023;-90
2023/09/21 01:50:59;;;;;;;5.53;3.42;;;;;;;;;;6162801;23;20021;-91
2023/09/21 01:53:29;;;;;;;4.50;2.55;;;;;;;;;;6163737;23;20027;-90
2023/09/21 01:55:58;;;;;;;4.10;2.83;;;;;;;;;;6187154;23;20337;-90
2023/09/21 01:58:27;;;;;;;3.05;2.75;;;;;;;;;;6214193;23;20032;-91
2023/09/21 02:00:54;;;;;;;5.10;3.08;;;;;;;;;;6163262;23;20021;-92
2023/09/21 02:03:27;;;;;;;3.13;2.63;;;;;;;;;;6162964;23;20017;-91
2023/09/21 02:05:57;;;;;;;3.45;3.10;;;;;;;;;;6187522;23;20017;-91
2023/09/21 02:08:24;;;;;;;3.70;3.33;;;;;;;;;;6161577;23;20017;-91
2023/09/21 02:10:52;;;;;;;5.28;2.53;;;;;;;;;;6187284;23;20013;-90
2023/09/21 02:13:21;;;;;;;6.43;3.33;;;;;;;;;;6187752;23;20486;-91
2023/09/21 02:15:51;;;;;;;2.63;2.17;;;;;;;;;;6186997;23;20035;-91
2023/09/21 02:18:20;;;;;;;3.97;3.67;;;;;;;;;;6161707;23;20017;-92
2023/09/21 02:20:50;;;;;;;3.60;2.92;;;;;;;;;;6194946;23;20028;-91
2023/09/21 02:23:20;;;;;;;6.10;3.33;;;;;;;;;;6162823;23;20020;-91
2023/09/21 02:25:48;;;;;;;4.80;3.00;;;;;;;;;;6162404;23;20024;-91
2023/09/21 02:28:15;;;;;;;4.32;3.08;;;;;;;;;;6161046;23;20416;-91
2023/09/21 02:30:47;;;;;;;4.25;2.67;;;;;;;;;;6186806;23;20020;-90
2023/09/21 02:33:16;;;;;;;2.83;2.42;;;;;;;;;;6162734;23;20039;-92
2023/09/21 02:35:46;;;;;;;5.10;3.20;;;;;;;;;;6187409;23;20024;-92
2023/09/21 02:38:14;;;;;;;3.72;2.67;;;;;;;;;;6162089;23;20016;-91
2023/09/21 02:40:45;;;;;;;3.65;2.70;;;;;;;;;;6161701;23;20026;-90
2023/09/21 02:43:13;;;;;;;4.25;2.83;;;;;;;;;;6187613;23;20021;-90
2023/09/21 02:45:40;;;;;;;3.53;2.70;;;;;;;;;;6162392;23;20024;-91
2023/09/21 02:48:09;;;;;;;3.40;2.60;;;;;;;;;;6187056;23;20017;-91
2023/09/21 02:50:39;;;;;;;3.08;2.67;;;;;;;;;;6161435;23;20024;-91
2023/09/21 02:53:12;;;;;;;4.28;3.38;;;;;;;;;;6163220;23;20020;-91
2023/09/21 02:55:42;;;;;;;4.32;2.80;;;;;;;;;;6162346;23;20463;-90
2023/09/21 02:58:13;;;;;;;4.35;3.28;;;;;;;;;;6137776;23;20023;-91
2023/09/21 03:00:49;;;;;;;3.80;3.10;;;;;;;;;;6193404;23;20016;-92
2023/09/21 03:03:19;;;;;;;7.57;3.40;;;;;;;;;;6162456;23;20017;-91
2023/09/21 03:05:51;;;;;;;3.38;2.08;;;;;;;;;;6186928;23;20017;-91
2023/09/21 03:08:19;;;;;;;3.85;3.10;;;;;;;;;;6162078;23;20471;-91
2023/09/21 03:10:54;;;;;;;4.30;2.90;;;;;;;;;;6161454;23;20020;-90
2023/09/21 03:13:22;;;;;;;6.20;2.72;;;;;;;;;;6187455;23;20024;-92
2023/09/21 03:15:53;;;;;;;5.15;3.15;;;;;;;;;;6162078;23;20020;-92
2023/09/21 03:18:24;;;;;;;4.60;3.35;;;;;;;;;;6186936;23;20502;-92
2023/09/21 03:20:57;;;;;;;4.38;3.70;;;;;;;;;;6219262;23;20364;-91
2023/09/21 03:23:26;;;;;;;5.55;3.53;;;;;;;;;;6197696;23;20365;-92
2023/09/21 03:25:54;;;;;;;5.70;3.75;;;;;;;;;;6161472;23;20032;-90
2023/09/21 03:28:23;;;;;;;5.55;3.03;;;;;;;;;;6161955;23;20013;-92
2023/09/21 03:30:57;;;;;;;3.47;3.08;;;;;;;;;;6162141;23;20028;-90
2023/09/21 03:33:27;;;;;;;4.72;3.78;;;;;;;;;;6161641;23;20016;-90
2023/09/21 03:35:56;;;;;;;4.03;3.58;;;;;;;;;;6185937;23;20427;-90
2023/09/21 03:38:25;;;;;;;4.65;3.17;;;;;;;;;;6186329;23;20013;-92
2023/09/21 03:40:57;;;;;;;3.55;2.63;;;;;;;;;;6162107;23;20462;-92
2023/09/21 03:43:25;;;;;;;3.42;3.08;;;;;;;;;;6161201;23;20020;-93
2023/09/21 03:45:53;;;;;;;8.68;3.05;;;;;;;;;;6160926;23;20017;-90
2023/09/21 03:48:21;;;;;;;4.40;3.72;;;;;;;;;;6161460;23;20027;-91
2023/09/21 03:50:51;;;;;;;4.13;3.72;;;;;;;;;;6186868;23;20024;-93
2023/09/21 03:53:20;;;;;;;4.43;3.35;;;;;;;;;;6161367;23;20364;-91
2023/09/21 03:55:49;;;;;;;6.00;4.63;;;;;;;;;;6212993;23;20013;-90
2023/09/21 03:58:17;;;;;;;5.22;3.88;;;;;;;;;;6160984;23;20023;-89
2023/09/21 04:00:47;;;;;;;4.97;3.45;;;;;;;;;;6162822;23;20025;-92
2023/09/21 04:03:17;;;;;;;8.38;3.22;;;;;;;;;;6162596;23;20356;-90
2023/09/21 04:06:02;;;;;;;5.72;3.58;;;;;;;;;;6197323;23;20023;-91
2023/09/21 04:08:31;;;;;;;3.78;3.03;;;;;;;;;;6161193;23;20020;-90
2023/09/21 04:10:59;;;;;;;3.20;2.85;;;;;;;;;;6162688;23;20020;-91
2023/09/21 04:13:27;;;;;;;5.57;3.70;;;;;;;;;;6187486;23;20013;-90
2023/09/21 04:15:54;;;;;;;4.95;3.85;;;;;;;;;;6213677;23;20032;-91
2023/09/21 04:18:22;;;;;;;5.35;3.05;;;;;;;;;;6161564;23;20017;-90
2023/09/21 04:20:51;;;;;;;3.55;2.97;;;;;;;;;;6187285;23;20363;-90
2023/09/21 04:23:19;;;;;;;7.93;4.45;;;;;;;;;;6162660;23;20020;-91
2023/09/21 04:25:48;;;;;;;5.18;4.10;;;;;;;;;;6161190;23;20016;-90
2023/09/21 04:28:17;;;;;;;4.57;3.30;;;;;;;;;;6195956;23;20019;-91
2023/09/21 04:30:47;;;;;;;6.03;3.83;;;;;;;;;;6161762;23;20027;-91
2023/09/21 04:33:14;;;;;;;7.25;3.60;;;;;;;;;;6162267;23;20021;-90
2023/09/21 04:35:42;;;;;;;4.13;3.30;;;;;;;;;;6161594;23;20028;-91
2023/09/21 04:38:10;;;;;;;6.13;4.07;;;;;;;;;;6186233;23;20020;-90
2023/09/21 04:40:39;;;;;;;5.78;3.85;;;;;;;;;;6162161;23;20375;-90
2023/09/21 04:43:12;;;;;;;3.65;3.35;;;;;;;;;;6161880;23;20021;-90
2023/09/21 04:45:42;;;;;;;4.60;3.30;;;;;;;;;;6162080;23;20031;-89
2023/09/21 04:48:12;;;;;;;6.70;3.20;;;;;;;;;;6161760;23;20027;-90
2023/09/21 04:50:43;;;;;;;3.33;3.03;;;;;;;;;;6161396;23;20031;-92
2023/09/21 04:53:11;;;;;;;4.18;3.05;;;;;;;;;;6161866;23;20021;-91
2023/09/21 04:55:39;;;;;;;3.30;2.53;;;;;;;;;;6188458;23;20017;-92
2023/09/21 04:58:06;;;;;;;2.83;2.53;;;;;;;;;;6162721;23;20013;-90
2023/09/21 05:00:38;;;;;;;4.38;3.97;;;;;;;;;;6163463;23;20028;-89
2023/09/21 05:03:09;;;;;;;6.22;3.72;;;;;;;;;;6198838;23;20008;-91
2023/09/21 05:05:45;;;;;;;6.88;3.55;;;;;;;;;;6163036;23;20021;-90
2023/09/21 05:08:12;;;;;;;4.03;2.97;;;;;;;;;;6162381;23;20072;-90
2023/09/21 05:10:44;;;;;;;3.92;2.75;;;;;;;;;;6162860;23;20608;-90
2023/09/21 05:13:13;;;;;;;;;;;;;;;;;;6162963;23;20498;-92
2023/09/21 05:15:42;;;;;;;5.05;3.67;;;;;;;;;;6164172;23;19935;-91
2023/09/21 05:18:09;;;;;;;4.90;3.83;;;;;;;;;;6163673;23;20016;-90
2023/09/21 05:20:37;;;;;;;5.30;4.18;;;;;;;;;;6215460;23;20352;-91
2023/09/21 05:23:06;;;;;;;3.80;3.08;;;;;;;;;;6188655;23;20019;-90
2023/09/21 05:25:34;;;;;;;4.68;3.65;;;;;;;;;;6190441;23;20029;-92
2023/09/21 05:28:02;;;;;;;4.53;3.70;;;;;;;;;;6171922;23;20016;-90
2023/09/21 05:30:32;;;;;;;4.70;3.42;;;;;;;;;;6184830;23;20031;-91
2023/09/21 05:33:05;;;;;;;5.72;3.55;;;;;;;;;;6193480;23;20020;-92
2023/09/21 05:35:33;;;;;;;3.72;3.35;;;;;;;;;;6169770;23;20020;-91
2023/09/21 05:38:01;;;;;;;8.52;3.53;;;;;;;;;;6191187;23;20024;-92
2023/09/21 05:40:32;;;;;;;4.97;3.22;;;;;;;;;;6167568;23;20080;-91
2023/09/21 05:43:00;;;;;;;4.22;2.83;;;;;;;;;;6167153;23;20024;-91
2023/09/21 05:45:27;;;;;;;4.57;3.50;;;;;;;;;;6191777;23;20024;-92
2023/09/21 05:47:55;;;;;;;4.72;3.67;;;;;;;;;;6169434;23;20021;-91
2023/09/21 05:50:24;;;;;;;4.68;3.35;;;;;;;;;;6189862;23;20019;-91
2023/09/21 05:52:56;;;;;;;6.75;3.47;;;;;;;;;;6167304;23;20035;-91
2023/09/21 05:55:23;;;;;;;4.03;3.08;;;;;;;;;;6187334;23;20016;-91
2023/09/21 05:57:51;;;;;;;3.42;2.50;;;;;;;;;;6186706;23;20024;-91
2023/09/21 06:00:18;;;;;;;4.35;3.17;;;;;;;;;;6186622;23;20027;-90
2023/09/21 06:02:46;;;;;;;4.60;4.15;;;;;;;;;;6214426;23;20025;-90
2023/09/21 06:05:19;;;;;;;5.05;3.00;;;;;;;;;;6163578;23;20028;-91
2023/09/21 06:07:48;;;;;;;4.90;3.58;;;;;;;;;;6188664;23;20020;-90
2023/09/21 06:10:17;;;;;;;3.85;3.17;;;;;;;;;;6191062;23;20021;-91
2023/09/21 06:12:47;;;;;;;4.75;3.03;;;;;;;;;;6163386;23;20016;-91
2023/09/21 06:15:15;;;;;;;4.38;3.47;;;;;;;;;;6187316;23;20019;-91
2023/09/21 06:17:43;;;;;;;5.55;3.45;;;;;;;;;;6162805;23;20039;-91
2023/09/21 06:20:12;;;;;;;3.13;2.80;;;;;;;;;;6197836;23;20021;-90
2023/09/21 06:22:40;;;;;;;5.60;3.38;;;;;;;;;;6187536;23;20009;-92
2023/09/21 06:25:10;;;;;;;5.07;3.40;;;;;;;;;;6186666;23;20027;-91
2023/09/21 06:27:38;;;;;;;3.72;3.10;;;;;;;;;;6187506;23;20013;-92
2023/09/21 06:30:10;;;;;;;3.05;2.75;;;;;;;;;;6162388;23;20017;-92
2023/09/21 06:32:38;;;;;;;4.03;2.90;;;;;;;;;;6224565;23;20024;-92
2023/09/21 06:35:08;;;;;;;3.47;3.17;;;;;;;;;;6187204;23;20013;-90
2023/09/21 06:37:38;;;;;;;4.72;3.15;;;;;;;;;;6186594;23;20020;-90
2023/09/21 06:40:07;;;;;;;5.65;3.25;;;;;;;;;;6162482;23;20028;-91
2023/09/21 06:42:35;;;;;;;4.88;3.95;;;;;;;;;;6158272;23;20020;-90
2023/09/21 06:45:03;;;;;;;5.65;3.20;;;;;;;;;;6185132;23;20507;-91
2023/09/21 06:47:31;;;;;;;3.25;2.92;;;;;;;;;;6184188;23;20035;-91
2023/09/21 06:50:01;;;;;;;4.63;3.83;;;;;;;;;;6186091;23;20008;-92
2023/09/21 06:52:28;;;;;;;2.78;2.42;;;;;;;;;;6186020;23;20020;-92
2023/09/21 06:54:57;;;;;;;4.20;3.80;;;;;;;;;;6213213;23;20021;-91
2023/09/21 06:57:24;;;;;;;5.15;3.10;;;;;;;;;;6185854;23;20360;-90
2023/09/21 06:59:54;;;;;;;4.80;3.70;;;;;;;;;;6196313;23;20012;-92
2023/09/21 07:02:24;;;;;;;3.45;3.13;;;;;;;;;;6187837;23;20375;-90
2023/09/21 07:04:51;;;;;;;5.95;3.53;;;;;;;;;;6215043;23;20040;-90
2023/09/21 07:07:21;;;;;;;5.63;3.53;;;;;;;;;;6189938;23;20027;-91
2023/09/21 07:09:51;;;;;;;4.10;2.85;;;;;;;;;;6214300;23;20954;-91
2023/09/21 07:12:18;;;;;;;2.60;2.40;;;;;;;;;;6214949;23;20016;-91
2023/09/21 07:14:50;;;;;;;4.70;3.47;;;;;;;;;;6188187;23;20020;-92
2023/09/21 07:17:22;;;;;;;8.75;3.22;;;;;;;;;;6162359;23;20017;-92
2023/09/21 07:19:50;;;;;;;3.95;3.13;;;;;;;;;;6187895;23;20019;-93
2023/09/21 07:22:20;;;;;;;10.13;2.42;;;;;;;;;;6165317;23;20483;-91
2023/09/21 07:24:48;;;;;;;7.10;3.90;;;;;;;;;;6164610;23;20020;-93
2023/09/21 07:27:16;;;;;;;3.42;2.53;;;;;;;;;;6188179;23;20016;-93
2023/09/21 07:29:46;;;;;;;3.60;3.15;;;;;;;;;;6213451;23;20017;-93
2023/09/21 07:32:16;;;;;;;4.10;3.70;;;;;;;;;;6188759;23;20460;-92
2023/09/21 07:34:48;;;;;;;4.00;3.30;;;;;;;;;;6187468;23;20012;-91
2023/09/21 07:37:16;;;;;;;4.75;3.38;;;;;;;;;;6222970;23;20013;-92
2023/09/21 07:39:46;;;;;;;3.70;2.47;;;;;;;;;;6212270;23;20023;-92
2023/09/21 07:42:14;;;;;;;4.05;2.42;;;;;;;;;;6186070;23;20024;-91
2023/09/21 07:44:44;;;;;;;2.97;2.63;;;;;;;;;;6185865;23;20020;-92
2023/09/21 07:47:12;;;;;;;5.43;2.30;;;;;;;;;;6160063;23;20027;-92
2023/09/21 07:49:44;;;;;;;3.75;2.05;;;;;;;;;;6157079;23;20020;-92
2023/09/21 07:52:13;;;;;;;2.53;2.17;;;;;;;;;;6184523;23;20483;-91
2023/09/21 07:54:40;;;;;;;2.60;1.95;;;;;;;;;;6183424;23;20035;-92
2023/09/21 07:57:08;;;;;;;3.08;2.10;;;;;;;;;;6209162;23;20017;-91
2023/09/21 07:59:37;;;;;;;3.28;2.67;;;;;;;;;;6157937;23;20028;-91
2023/09/21 08:02:05;;;;;;;2.35;1.83;;;;;;;;;;6160787;23;20020;-92
2023/09/21 08:04:34;;;;;;;5.40;2.30;;;;;;;;;;6185717;23;20039;-91
2023/09/21 08:07:05;;;;;;;3.88;2.55;;;;;;;;;;6185979;23;20016;-91
2023/09/21 08:09:34;;;;;;;4.78;2.67;;;;;;;;;;6160717;23;20023;-92
2023/09/21 08:12:04;;;;;;;6.57;2.10;;;;;;;;;;6186044;23;20379;-92
2023/09/21 08:14:34;;;;;;;3.25;2.70;;;;;;;;;;6212451;23;20025;-92
2023/09/21 08:17:03;;;;;;;2.83;2.15;;;;;;;;;;6186587;23;20497;-93
2023/09/21 08:19:30;;;;;;;4.15;2.65;;;;;;;;;;6211818;23;20028;-90
2023/09/21 08:22:01;;;;;;;3.60;2.63;;;;;;;;;;6186251;23;20025;-92
2023/09/21 08:24:41;;;;;;;3.05;2.05;;;;;;;;;;6196381;23;20027;-92
2023/09/21 08:27:09;;;;;;;2.63;2.33;;;;;;;;;;6223103;23;20020;-93
2023/09/21 08:29:45;;;;;;;2.63;2.33;;;;;;;;;;6213575;23;20027;-92
2023/09/21 08:32:15;;;;;;;2.95;2.58;;;;;;;;;;6188556;23;20020;-92
2023/09/21 08:34:45;;;;;;;4.83;3.07;;;;;;;;;;6188207;23;20707;-91
2023/09/21 08:37:12;;;;;;;4.13;2.83;;;;;;;;;;6187276;23;20017;-92
2023/09/21 08:39:41;;;;;;;2.20;2.00;;;;;;;;;;6187637;23;20552;-94
2023/09/21 08:42:09;;;;;;;3.40;2.72;;;;;;;;;;6214170;23;20329;-93
2023/09/21 08:44:40;;;;;;;3.92;2.78;;;;;;;;;;6187598;23;20051;-93
2023/09/21 08:47:11;;;;;;;4.82;2.17;;;;;;;;;;6187784;23;20332;-93
2023/09/21 08:49:41;;;;;;;3.97;2.38;;;;;;;;;;6162250;23;20017;-91
2023/09/21 08:52:09;;;;;;;2.58;2.22;;;;;;;;;;6186523;23;20020;-92
2023/09/21 08:54:41;;;;;;;2.80;2.50;;;;;;;;;;6223995;23;20016;-93
2023/09/21 08:57:11;;;;;;;2.80;2.13;;;;;;;;;;6187774;23;20016;-92
2023/09/21 08:59:42;;;;;;;2.58;2.30;;;;;;;;;;6214182;23;20012;-92
2023/09/21 09:02:11;;;;;;;2.70;2.00;;;;;;;;;;6215930;23;20016;-93
2023/09/21 09:04:39;;;;;;;3.75;2.35;;;;;;;;;;6187708;23;20009;-92
2023/09/21 09:07:08;;;;;;;3.67;2.25;;;;;;;;;;6187808;23;20020;-92
2023/09/21 09:09:41;;;;;;;3.53;2.85;;;;;;;;;;6187051;23;20031;-92
2023/09/21 09:12:26;;;;;;;5.20;2.25;;;;;;;;;;6216152;23;20354;-94
2023/09/21 09:14:57;;;;;;;2.42;2.10;;;;;;;;;;6225678;23;20466;-93
2023/09/21 09:17:30;;;;;;;2.92;2.60;;;;;;;;;;6188077;23;20023;-91
2023/09/21 09:20:03;;;;;;;2.83;2.38;;;;;;;;;;6198546;23;20020;-92
2023/09/21 09:22:41;;;;;;;3.80;1.92;;;;;;;;;;6198815;23;20486;-93
2023/09/21 09:25:10;;;;;;;4.97;2.80;;;;;;;;;;6188053;23;20044;-92
2023/09/21 09:27:43;;;;;;;2.30;2.03;;;;;;;;;;6164372;23;20502;-93
2023/09/21 09:30:13;;;;;;;1.95;1.75;;;;;;;;;;6213447;23;20761;-92
2023/09/21 09:32:42;;;;;;;2.97;2.05;;;;;;;;;;6187641;23;20020;-92
2023/09/21 09:35:13;;;;;;;3.00;2.50;;;;;;;;;;6187433;23;20025;-91
2023/09/21 09:37:40;;;;;;;2.95;2.60;;;;;;;;;;6162577;23;20016;-92
2023/09/21 09:40:12;;;;;;;2.55;1.95;;;;;;;;;;6184952;23;20031;-92
2023/09/21 09:42:42;;;;;;;3.08;2.33;;;;;;;;;;6213697;23;20016;-91
2023/09/21 09:45:16;;;;;;;3.53;2.80;;;;;;;;;;6162882;23;20021;-92
2023/09/21 09:47:50;;;;;;;2.40;2.20;;;;;;;;;;6162476;23;20021;-91
2023/09/21 09:50:23;;;;;;;5.90;2.05;;;;;;;;;;6161968;23;20024;-92
2023/09/21 09:53:00;;;;;;;6.88;2.28;;;;;;;;;;6197734;23;20025;-90
2023/09/21 09:55:31;;;;;;;3.75;2.75;;;;;;;;;;6197440;23;20019;-92
2023/09/21 09:58:00;;;;;;;2.38;2.13;;;;;;;;;;6188038;23;20486;-93
2023/09/21 10:00:29;;;;;;;2.92;2.20;;;;;;;;;;6187304;23;20375;-91
2023/09/21 10:02:59;;;;;;;3.55;2.38;;;;;;;;;;6186665;23;20031;-92
2023/09/21 10:05:30;;;;;;;2.97;2.00;;;;;;;;;;6215586;23;20463;-91
2023/09/21 10:08:06;;;;;;;2.15;1.77;;;;;;;;;;6198231;23;20016;-94
2023/09/21 10:10:36;;;;;;;3.58;2.47;;;;;;;;;;6214042;23;20016;-91
2023/09/21 10:13:05;;;;;;;2.40;2.05;;;;;;;;;;6186779;23;20024;-92
2023/09/21 10:15:33;;;;;;;5.22;2.67;;;;;;;;;;6163021;23;20080;-93
2023/09/21 10:18:01;;;;;;;2.25;1.83;;;;;;;;;;6187749;23;20016;-93
2023/09/21 10:20:32;;;;;;;3.55;2.03;;;;;;;;;;6187755;23;20313;-92
2023/09/21 10:23:07;;;;;;;2.95;2.60;;;;;;;;;;6197909;23;20031;-91
2023/09/21 10:25:38;;;;;;;4.32;2.58;;;;;;;;;;6224419;23;20013;-92
2023/09/21 10:28:37;;;;;;;1.83;1.70;;;;;;;;;;6162540;23;20028;-92
2023/09/21 10:31:29;;;;;;;2.58;2.20;;;;;;;;;;6163183;23;20012;-92
2023/09/21 10:34:16;;;;;;;5.15;1.60;;;;;;;;;;6163159;23;20036;-91
2023/09/21 10:36:51;;;;;;;6.18;2.08;;;;;;;;;;6164095;23;20024;-92
2023/09/21 10:39:26;;;;;;;3.30;2.00;;;;;;;;;;6216551;23;20017;-92
2023/09/21 10:58:48;;;;;;;2.05;1.80;;;;;;;;;;6227853;23;20022;-91
2023/09/21 11:01:21;;;;;;;4.15;2.40;;;;;;;;;;6174923;23;20087;-92
2023/09/21 11:03:51;;;;;;;3.70;1.90;;;;;;;;;;6173481;23;20016;-90
2023/09/21 11:06:19;;;;;;;2.90;2.60;;;;;;;;;;6198963;23;20456;-92
2023/09/21 11:08:48;;;;;;;2.78;2.20;;;;;;;;;;6174277;23;20027;-91
2023/09/21 11:11:21;;;;;;;2.20;1.90;;;;;;;;;;6224215;23;20019;-92
2023/09/21 11:13:53;;;;;;;3.72;1.73;;;;;;;;;;6220125;23;20067;-92
2023/09/21 11:16:21;;;;;;;3.05;2.38;;;;;;;;;;6189243;23;20012;-92
2023/09/21 11:18:53;;;;;;;2.60;2.38;;;;;;;;;;6216305;23;20022;-90
2023/09/21 11:21:21;;;;;;;1.77;1.65;;;;;;;;;;6190122;23;20023;-92
2023/09/21 11:23:53;;;;;;;1.90;1.50;;;;;;;;;;6188493;23;20463;-92
2023/09/21 11:26:22;;;;;;;3.55;2.25;;;;;;;;;;6188640;23;20017;-93
2023/09/21 11:28:58;;;;;;;2.05;1.70;;;;;;;;;;6161172;23;20475;-91
2023/09/21 11:31:26;;;;;;;1.60;1.50;;;;;;;;;;6161974;23;20581;-92
2023/09/21 11:33:53;;;;;;;6.18;1.83;;;;;;;;;;6187794;23;20028;-92
2023/09/21 11:36:21;;;;;;;3.88;1.45;;;;;;;;;;6186395;23;20039;-92
2023/09/21 11:38:50;;;;;;;2.60;1.55;;;;;;;;;;6185747;23;20375;-92
2023/09/21 11:41:18;;;;;;;2.40;2.05;;;;;;;;;;6212513;23;20329;-91
2023/09/21 11:43:45;;;;;;;3.60;2.15;;;;;;;;;;6185301;23;20465;-92
2023/09/21 11:46:16;;;;;;;4.93;1.77;;;;;;;;;;6211771;23;20076;-92
2023/09/21 11:48:48;;;;;;;2.70;1.80;;;;;;;;;;6162425;23;20027;-91
2023/09/21 11:51:17;;;;;;;2.20;1.90;;;;;;;;;;6185784;23;20016;-91
2023/09/21 11:53:45;;;;;;;2.83;2.15;;;;;;;;;;6186754;23;20016;-92
2023/09/21 11:56:15;;;;;;;1.92;1.70;;;;;;;;;;6185095;23;20013;-91
2023/09/21 11:58:42;;;;;;;4.93;1.98;;;;;;;;;;6185379;23;20017;-91
2023/09/21 12:01:19;;;;;;;2.38;1.90;;;;;;;;;;6186204;23;20513;-92
2023/09/21 12:03:51;;;;;;;4.18;2.03;;;;;;;;;;6189894;23;20030;-92
2023/09/21 12:06:19;;;;;;;3.75;1.92;;;;;;;;;;6199902;23;20020;-91
2023/09/21 12:08:51;;;;;;;2.33;2.13;;;;;;;;;;6188123;23;20021;-93
2023/09/21 12:11:21;;;;;;;2.20;2.00;;;;;;;;;;6170395;23;20020;-92
2023/09/21 12:13:48;;;;;;;2.58;2.00;;;;;;;;;;6174406;23;20031;-92
2023/09/21 12:16:18;;;;;;;3.30;1.95;;;;;;;;;;6227711;23;20012;-91
2023/09/21 12:18:46;;;;;;;2.78;1.98;;;;;;;;;;6236136;23;20016;-92
2023/09/21 12:21:18;;;;;;;5.20;2.00;;;;;;;;;;6166696;23;20079;-91
2023/09/21 12:23:49;;;;;;;3.10;1.95;;;;;;;;;;6224963;23;20031;-92
2023/09/21 12:26:20;;;;;;;1.80;1.52;;;;;;;;;;6187107;23;20024;-92
2023/09/21 12:28:49;;;;;;;2.65;1.45;;;;;;;;;;6162882;23;20021;-92
2023/09/21 12:31:19;;;;;;;2.17;1.63;;;;;;;;;;6187954;23;20020;-92
2023/09/21 12:33:46;;;;;;;3.28;1.67;;;;;;;;;;6187806;23;20021;-91
2023/09/21 12:36:19;;;;;;;2.08;1.88;;;;;;;;;;6164116;23;20020;-92
2023/09/21 12:38:48;;;;;;;1.45;1.35;;;;;;;;;;6196878;23;20626;-92
2023/09/21 12:41:17;;;;;;;2.35;1.70;;;;;;;;;;6188917;23;20020;-93
2023/09/21 12:43:47;;;;;;;2.20;1.77;;;;;;;;;;6186380;23;20039;-92
2023/09/21 12:46:14;;;;;;;2.58;1.98;;;;;;;;;;6162336;23;20024;-92
2023/09/21 12:48:42;;;;;;;2.50;1.50;;;;;;;;;;6187147;23;20039;-92
2023/09/21 12:51:09;;;;;;;4.00;2.58;;;;;;;;;;6161237;23;20021;-91
2023/09/21 12:53:42;;;;;;;2.72;1.70;;;;;;;;;;6217796;23;20027;-93
2023/09/21 12:56:10;;;;;;;2.90;1.40;;;;;;;;;;6192764;23;20017;-92
2023/09/21 12:58:37;;;;;;;2.85;2.03;;;;;;;;;;6189508;23;20012;-92
2023/09/21 13:01:06;;;;;;;3.67;1.75;;;;;;;;;;6198889;23;20016;-93
2023/09/21 13:03:36;;;;;;;1.83;1.20;;;;;;;;;;6168413;23;20016;-94
2023/09/21 13:06:05;;;;;;;4.53;1.50;;;;;;;;;;6220157;23;20027;-93
2023/09/21 13:08:33;;;;;;;2.40;1.90;;;;;;;;;;6189519;23;20027;-92
2023/09/21 13:11:03;;;;;;;3.67;1.70;;;;;;;;;;6189807;23;20017;-94
2023/09/21 13:13:37;;;;;;;2.15;1.92;;;;;;;;;;6167734;23;20017;-92
2023/09/21 13:16:08;;;;;;;1.52;1.38;;;;;;;;;;6198539;23;20112;-92
2023/09/21 13:18:41;;;;;;;6.00;3.17;;;;;;;;;;6191105;23;20031;-92
2023/09/21 13:21:10;;;;;;;6.32;1.58;;;;;;;;;;6192160;23;20021;-93
2023/09/21 13:23:40;;;;;;;2.80;1.83;;;;;;;;;;6216343;23;20013;-92
2023/09/21 13:26:09;;;;;;;3.08;1.55;;;;;;;;;;6217669;23;20335;-92
2023/09/21 13:28:39;;;;;;;2.13;1.52;;;;;;;;;;6229166;23;20013;-92
2023/09/21 13:31:09;;;;;;;4.00;2.15;;;;;;;;;;6218589;23;20012;-93
2023/09/21 13:33:39;;;;;;;3.13;2.22;;;;;;;;;;6203267;23;20042;-93
2023/09/21 13:36:09;;;;;;;2.03;1.75;;;;;;;;;;6192209;23;20021;-94
2023/09/21 13:38:42;;;;;;;2.58;1.75;;;;;;;;;;6188406;23;20035;-92
2023/09/21 13:41:21;;;;;;;3.30;1.42;;;;;;;;;;6191748;23;20020;-93
2023/09/21 13:43:48;;;;;;;2.90;1.88;;;;;;;;;;6165895;23;20688;-91
2023/09/21 13:46:18;;;;;;;1.98;1.77;;;;;;;;;;6189596;23;20027;-94
2023/09/21 13:48:48;;;;;;;3.07;2.00;;;;;;;;;;6191993;23;20028;-92
2023/09/21 13:51:18;;;;;;;2.33;1.63;;;;;;;;;;6218412;23;20013;-92
2023/09/21 13:53:45;;;;;;;1.90;1.33;;;;;;;;;;6217694;23;20362;-93
2023/09/21 13:56:16;;;;;;;2.53;1.75;;;;;;;;;;6190297;23;20028;-92
2023/09/21 13:58:48;;;;;;;;;;;;;;;;;;6200349;23;20016;-93
2023/09/21 14:01:19;;;;;;;3.67;1.70;;;;;;;;;;6189300;23;20236;-92
2023/09/21 14:03:46;;;;;;;2.35;1.75;;;;;;;;;;6164425;23;20735;-92
2023/09/21 14:06:16;;;;;;;2.25;1.95;;;;;;;;;;6188771;23;20016;-93
2023/09/21 14:08:43;;;;;;;1.95;1.77;;;;;;;;;;6188252;23;20040;-91
2023/09/21 14:11:20;;;;;;;4.68;1.75;;;;;;;;;;6163611;23;20527;-93
2023/09/21 14:13:49;;;;;;;3.40;1.50;;;;;;;;;;6189983;23;20013;-92
2023/09/21 14:16:17;;;;;;;3.75;1.80;;;;;;;;;;6164818;23;20360;-93
2023/09/21 14:18:47;;;;;;;2.10;1.55;;;;;;;;;;6163086;23;20020;-93
2023/09/21 14:21:15;;;;;;;2.00;1.58;;;;;;;;;;6187730;23;20375;-93
2023/09/21 14:23:46;;;;;;;2.58;1.63;;;;;;;;;;6162200;23;20051;-93
2023/09/21 14:26:16;;;;;;;1.95;1.58;;;;;;;;;;6162307;23;20678;-93
2023/09/21 14:28:46;;;;;;;4.72;1.77;;;;;;;;;;6213863;23;20024;-92
2023/09/21 14:31:17;;;;;;;1.70;1.60;;;;;;;;;;6186339;23;20024;-93
2023/09/21 14:33:47;;;;;;;5.75;1.90;;;;;;;;;;6224116;23;20017;-93
2023/09/21 14:36:14;;;;;;;2.35;1.90;;;;;;;;;;6187222;23;20016;-92
2023/09/21 14:38:42;;;;;;;2.03;1.77;;;;;;;;;;6213118;23;20016;-93
2023/09/21 14:41:09;;;;;;;1.27;1.13;;;;;;;;;;6213674;23;20023;-93
2023/09/21 14:43:38;;;;;;;2.60;1.52;;;;;;;;;;6213687;23;20012;-93
2023/09/21 14:46:12;;;;;;;4.82;1.88;;;;;;;;;;6186085;23;20021;-93
2023/09/21 14:48:40;;;;;;;6.35;1.95;;;;;;;;;;6187189;23;20371;-93
2023/09/21 14:51:08;;;;;;;2.58;1.98;;;;;;;;;;6162764;23;20016;-93
2023/09/21 14:53:36;;;;;;;3.45;1.88;;;;;;;;;;6224372;23;20355;-93
2023/09/21 14:56:04;;;;;;;3.90;1.80;;;;;;;;;;6188859;23;20023;-93
2023/09/21 14:58:32;;;;;;;2.50;1.52;;;;;;;;;;6187420;23;20017;-93
2023/09/21 15:01:00;;;;;;;3.85;1.65;;;;;;;;;;6188151;23;20017;-95
2023/09/21 15:03:29;;;;;;;1.90;1.80;;;;;;;;;;6198281;23;20019;-93
2023/09/21 15:05:57;;;;;;;1.98;1.50;;;;;;;;;;6213669;23;20023;-92
2023/09/21 15:08:24;;;;;;;2.38;1.80;;;;;;;;;;6185874;23;20363;-92
2023/09/21 15:10:54;;;;;;;2.50;1.60;;;;;;;;;;6186732;23;20046;-92
2023/09/21 15:13:24;;;;;;;2.58;1.80;;;;;;;;;;6187068;23;20375;-92
2023/09/21 15:15:51;;;;;;;3.00;2.33;;;;;;;;;;6162157;23;20064;-92